createdAt,value
2018-08-09T00:00:41.874Z,22.08
2018-08-09T00:03:09.442Z,22.14
2018-08-09T00:05:36.417Z,22.14
2018-08-09T00:08:03.374Z,22.00
2018-08-09T00:10:30.352Z,21.86
2018-08-09T00:12:57.282Z,21.87
2018-08-09T00:15:24.358Z,21.81
2018-08-09T00:17:51.301Z,21.70
2018-08-09T00:20:18.245Z,21.54
2018-08-09T00:22:45.938Z,21.32
2018-08-09T00:25:12.863Z,21.11
2018-08-09T00:27:39.746Z,21.26
2018-08-09T00:30:08.742Z,21.57
2018-08-09T00:32:36.759Z,21.70
2018-08-09T00:35:03.778Z,21.83
2018-08-09T00:37:30.782Z,21.92
2018-08-09T00:39:57.712Z,21.93
2018-08-09T00:42:24.670Z,21.92
2018-08-09T00:44:51.627Z,21.97
2018-08-09T00:47:18.582Z,22.10
2018-08-09T00:49:45.599Z,22.17
2018-08-09T00:52:12.495Z,22.05
2018-08-09T00:54:39.467Z,21.70
2018-08-09T00:57:06.377Z,21.59
2018-08-09T00:59:33.437Z,21.57
2018-08-09T01:02:00.353Z,21.71
2018-08-09T01:04:27.278Z,21.58
2018-08-09T01:06:54.430Z,21.40
2018-08-09T01:09:21.402Z,21.29
2018-08-09T01:11:48.365Z,21.31
2018-08-09T01:14:15.326Z,21.25
2018-08-09T01:16:42.278Z,21.20
2018-08-09T01:19:09.217Z,21.19
2018-08-09T01:21:37.214Z,21.23
2018-08-09T01:24:05.235Z,21.32
2018-08-09T01:26:32.175Z,21.34
2018-08-09T01:28:59.134Z,21.40
2018-08-09T01:31:32.970Z,21.41
2018-08-09T01:34:00.706Z,21.13
2018-08-09T01:36:27.675Z,21.09
2018-08-09T01:38:54.877Z,21.12
2018-08-09T01:41:21.781Z,21.15
2018-08-09T01:43:58.050Z,21.05
2018-08-09T01:46:25.638Z,20.97
2018-08-09T01:48:52.902Z,20.93
2018-08-09T01:51:19.882Z,21.08
2018-08-09T01:53:48.151Z,20.95
2018-08-09T01:56:16.034Z,20.80
2018-08-09T01:58:42.956Z,20.74
2018-08-09T02:01:09.813Z,20.60
2018-08-09T02:03:36.694Z,20.74
2018-08-09T02:06:04.744Z,20.51
2018-08-09T02:08:31.656Z,20.52
2018-08-09T02:10:58.597Z,20.52
2018-08-09T02:13:25.513Z,20.45
2018-08-09T02:15:53.010Z,20.36
2018-08-09T02:18:20.066Z,20.26
2018-08-09T02:20:47.033Z,20.27
2018-08-09T02:23:15.522Z,20.29
2018-08-09T02:25:42.454Z,20.29
2018-08-09T02:28:09.370Z,20.34
2018-08-09T02:30:36.319Z,20.28
2018-08-09T02:33:03.275Z,20.35
2018-08-09T02:35:30.187Z,20.34
2018-08-09T02:37:57.095Z,20.23
2018-08-09T02:40:24.559Z,20.51
2018-08-09T02:42:51.486Z,20.29
2018-08-09T02:45:18.766Z,20.31
2018-08-09T02:47:45.678Z,20.21
2018-08-09T02:50:12.578Z,20.21
2018-08-09T02:52:39.581Z,20.43
2018-08-09T02:55:06.514Z,20.57
2018-08-09T02:57:33.417Z,20.63
2018-08-09T03:00:00.293Z,20.83
2018-08-09T03:02:28.337Z,20.84
2018-08-09T03:04:55.290Z,20.78
2018-08-09T03:07:22.188Z,20.82
2018-08-09T03:12:23.355Z,20.53
2018-08-09T03:14:50.229Z,21.02
2018-08-09T03:17:17.224Z,20.60
2018-08-09T03:19:45.091Z,20.51
2018-08-09T03:22:12.047Z,20.52
2018-08-09T03:24:39.610Z,20.27
2018-08-09T03:27:06.582Z,20.10
2018-08-09T03:29:33.558Z,20.30
2018-08-09T03:32:00.474Z,20.30
2018-08-09T03:34:27.452Z,20.23
2018-08-09T03:36:54.385Z,20.08
2018-08-09T03:39:21.317Z,20.06
2018-08-09T03:41:48.222Z,20.11
2018-08-09T03:44:15.182Z,20.05
2018-08-09T03:46:43.268Z,19.88
2018-08-09T03:49:10.185Z,19.83
2018-08-09T03:51:37.164Z,19.90
2018-08-09T03:54:04.187Z,19.93
2018-08-09T03:56:31.078Z,20.14
2018-08-09T03:58:59.049Z,20.14
2018-08-09T04:01:27.207Z,20.07
2018-08-09T04:03:54.131Z,20.07
2018-08-09T04:06:21.057Z,20.06
2018-08-09T04:08:48.046Z,20.29
2018-08-09T04:11:14.974Z,20.28
2018-08-09T04:13:41.914Z,20.30
2018-08-09T04:16:08.968Z,20.34
2018-08-09T04:18:35.900Z,20.42
2018-08-09T04:21:02.821Z,20.60
2018-08-09T04:23:29.758Z,20.77
2018-08-09T04:25:57.635Z,20.85
2018-08-09T04:28:27.993Z,20.92
2018-08-09T04:30:54.946Z,20.97
2018-08-09T04:33:21.883Z,20.94
2018-08-09T04:35:49.865Z,20.79
2018-08-09T04:38:16.831Z,20.68
2018-08-09T04:40:43.834Z,20.62
2018-08-09T04:43:10.748Z,20.57
2018-08-09T04:45:37.718Z,20.50
2018-08-09T04:48:04.721Z,20.52
2018-08-09T04:50:32.725Z,20.83
2018-08-09T04:52:59.670Z,21.15
2018-08-09T04:55:26.552Z,21.32
2018-08-09T04:57:53.493Z,21.27
2018-08-09T05:00:20.466Z,21.18
2018-08-09T05:02:47.441Z,21.26
2018-08-09T05:05:15.221Z,21.24
2018-08-09T05:07:42.182Z,21.49
2018-08-09T05:10:10.145Z,21.32
2018-08-09T05:12:37.830Z,21.25
2018-08-09T05:15:04.746Z,21.40
2018-08-09T05:17:31.877Z,21.75
2018-08-09T05:19:58.797Z,22.01
2018-08-09T05:22:26.693Z,22.29
2018-08-09T05:24:53.641Z,22.35
2018-08-09T05:27:20.573Z,22.43
2018-08-09T05:29:47.537Z,22.91
2018-08-09T05:32:14.522Z,23.15
2018-08-09T05:34:42.185Z,23.40
2018-08-09T05:37:09.100Z,23.39
2018-08-09T05:39:36.043Z,23.05
2018-08-09T05:42:02.970Z,23.35
2018-08-09T05:44:29.938Z,23.44
2018-08-09T05:46:56.874Z,23.39
2018-08-09T05:49:23.796Z,23.56
2018-08-09T05:51:50.767Z,23.69
2018-08-09T05:54:17.731Z,23.25
2018-08-09T05:56:44.681Z,23.07
2018-08-09T05:59:11.706Z,23.07
2018-08-09T06:01:38.602Z,23.32
2018-08-09T06:04:06.217Z,23.32
2018-08-09T06:06:33.653Z,23.26
2018-08-09T06:09:00.637Z,23.43
2018-08-09T06:11:27.609Z,23.56
2018-08-09T06:13:54.530Z,23.40
2018-08-09T06:16:21.473Z,23.40
2018-08-09T06:18:49.184Z,23.57
2018-08-09T06:21:16.103Z,23.83
2018-08-09T06:23:43.043Z,24.18
2018-08-09T06:26:10.022Z,24.73
2018-08-09T06:28:37.022Z,25.21
2018-08-09T06:31:03.941Z,25.42
2018-08-09T06:33:30.991Z,25.07
2018-08-09T06:35:57.870Z,25.04
2018-08-09T06:38:24.810Z,26.02
2018-08-09T06:40:51.766Z,26.72
2018-08-09T06:43:18.729Z,26.85
2018-08-09T06:45:45.693Z,26.97
2018-08-09T06:48:12.665Z,26.76
2018-08-09T06:50:39.621Z,26.52
2018-08-09T06:53:06.551Z,26.13
2018-08-09T06:55:33.561Z,25.53
2018-08-09T06:58:00.551Z,25.01
2018-08-09T07:00:28.326Z,24.87
2018-08-09T07:02:55.320Z,24.99
2018-08-09T07:05:22.234Z,25.54
2018-08-09T07:07:49.110Z,26.50
2018-08-09T07:10:16.097Z,27.26
2018-08-09T07:12:43.049Z,27.08
2018-08-09T07:15:11.629Z,26.38
2018-08-09T07:17:38.997Z,26.40
2018-08-09T07:20:06.889Z,26.61
2018-08-09T07:22:33.863Z,27.03
2018-08-09T07:25:00.810Z,27.48
2018-08-09T07:27:27.770Z,28.13
2018-08-09T07:29:54.704Z,28.45
2018-08-09T07:32:22.703Z,28.37
2018-08-09T07:34:49.637Z,29.03
2018-08-09T07:37:16.607Z,29.30
2018-08-09T07:39:43.563Z,28.93
2018-08-09T07:42:10.526Z,28.87
2018-08-09T07:44:37.465Z,28.61
2018-08-09T07:47:04.425Z,28.61
2018-08-09T07:49:31.429Z,28.57
2018-08-09T07:51:58.393Z,28.56
2018-08-09T07:54:25.331Z,28.45
2018-08-09T07:56:52.510Z,27.79
2018-08-09T07:59:19.394Z,28.36
2018-08-09T08:01:46.282Z,28.87
2018-08-09T08:04:13.226Z,28.73
2018-08-09T08:06:40.209Z,29.08
2018-08-09T08:09:09.393Z,29.59
2018-08-09T08:11:36.356Z,30.03
2018-08-09T08:14:03.462Z,29.46
2018-08-09T08:16:30.410Z,29.31
2018-08-09T08:18:57.347Z,29.90
2018-08-09T08:21:24.375Z,30.57
2018-08-09T08:23:51.258Z,30.68
2018-08-09T08:26:18.225Z,30.37
2018-08-09T08:28:45.226Z,30.21
2018-08-09T08:31:12.098Z,30.65
2018-08-09T08:33:40.005Z,30.26
2018-08-09T08:36:06.982Z,30.65
2018-08-09T08:38:33.930Z,30.67
2018-08-09T08:41:00.933Z,30.47
2018-08-09T08:43:27.841Z,30.70
2018-08-09T08:45:54.809Z,30.99
2018-08-09T08:48:21.766Z,31.09
2018-08-09T08:50:48.705Z,30.84
2018-08-09T08:53:15.744Z,30.49
2018-08-09T08:55:42.627Z,30.88
2018-08-09T08:58:09.617Z,30.87
2018-08-09T09:00:36.538Z,30.98
2018-08-09T09:03:03.533Z,31.30
2018-08-09T09:05:30.526Z,31.31
2018-08-09T09:07:57.403Z,31.39
2018-08-09T09:10:24.382Z,31.14
2018-08-09T09:12:51.368Z,30.27
2018-08-09T09:15:18.289Z,30.63
2018-08-09T09:17:45.246Z,30.47
2018-08-09T09:20:13.546Z,30.69
2018-08-09T09:22:41.000Z,31.38
2018-08-09T09:25:08.876Z,31.67
2018-08-09T09:27:35.902Z,32.34
2018-08-09T09:30:03.174Z,32.96
2018-08-09T09:32:30.142Z,33.19
2018-08-09T09:34:57.174Z,33.59
2018-08-09T09:37:24.077Z,33.78
2018-08-09T09:39:51.010Z,34.11
2018-08-09T09:42:17.905Z,34.22
2018-08-09T09:44:44.862Z,33.70
2018-08-09T09:47:11.821Z,34.05
2018-08-09T09:49:38.801Z,33.26
2018-08-09T09:52:05.757Z,33.78
2018-08-09T09:54:32.751Z,33.84
2018-08-09T09:56:59.729Z,34.08
2018-08-09T09:59:26.736Z,33.37
2018-08-09T10:01:53.775Z,32.74
2018-08-09T10:04:20.726Z,32.95
2018-08-09T10:06:48.405Z,33.03
2018-08-09T10:09:15.371Z,33.65
2018-08-09T10:11:42.306Z,33.32
2018-08-09T10:14:09.297Z,33.50
2018-08-09T10:16:36.246Z,33.02
2018-08-09T10:19:03.214Z,33.20
2018-08-09T10:21:30.229Z,33.53
2018-08-09T10:23:57.207Z,33.84
2018-08-09T10:26:24.434Z,34.43
2018-08-09T10:28:51.443Z,34.95
2018-08-09T10:31:18.382Z,35.32
2018-08-09T10:33:45.890Z,35.73
2018-08-09T10:36:13.586Z,35.50
2018-08-09T10:38:41.626Z,35.58
2018-08-09T10:41:08.977Z,35.85
2018-08-09T10:43:36.002Z,35.53
2018-08-09T10:46:02.955Z,35.43
2018-08-09T10:48:29.887Z,35.76
2018-08-09T10:50:56.814Z,35.82
2018-08-09T10:53:23.777Z,35.32
2018-08-09T10:55:50.726Z,35.26
2018-08-09T10:58:17.685Z,35.65
2018-08-09T11:00:44.645Z,35.59
2018-08-09T11:03:11.613Z,35.18
2018-08-09T11:05:38.533Z,35.73
2018-08-09T11:08:05.562Z,36.35
2018-08-09T11:10:32.629Z,36.37
2018-08-09T11:12:59.561Z,35.95
2018-08-09T11:15:26.446Z,36.23
2018-08-09T11:17:53.345Z,35.72
2018-08-09T11:20:20.337Z,35.47
2018-08-09T11:22:47.302Z,35.42
2018-08-09T11:25:14.238Z,35.39
2018-08-09T11:27:41.192Z,35.58
2018-08-09T11:30:08.133Z,35.48
2018-08-09T11:32:36.102Z,35.27
2018-08-09T11:35:03.409Z,35.19
2018-08-09T11:37:30.473Z,35.37
2018-08-09T11:39:57.438Z,35.58
2018-08-09T11:42:24.370Z,36.03
2018-08-09T11:44:51.447Z,36.22
2018-08-09T11:47:18.530Z,36.54
2018-08-09T11:49:45.476Z,36.56
2018-08-09T11:52:12.423Z,35.98
2018-08-09T11:54:39.398Z,36.14
2018-08-09T11:57:06.350Z,35.16
2018-08-09T11:59:33.466Z,35.96
2018-08-09T12:02:00.430Z,35.51
2018-08-09T12:04:27.443Z,35.74
2018-08-09T12:06:54.338Z,36.63
2018-08-09T12:09:21.314Z,37.00
2018-08-09T12:11:48.278Z,37.04
2018-08-09T12:14:15.256Z,35.68
2018-08-09T12:16:43.035Z,34.82
2018-08-09T12:19:09.953Z,34.37
2018-08-09T12:21:36.895Z,32.27
2018-08-09T12:24:03.873Z,28.95
2018-08-09T12:26:31.219Z,27.30
2018-08-09T12:28:58.187Z,26.58
2018-08-09T12:31:25.149Z,26.40
2018-08-09T12:33:52.102Z,26.00
2018-08-09T12:36:19.066Z,26.03
2018-08-09T12:38:46.014Z,26.37
2018-08-09T12:41:12.957Z,26.85
2018-08-09T12:43:39.921Z,27.12
2018-08-09T12:46:06.919Z,27.56
2018-08-09T12:48:33.872Z,27.17
2018-08-09T12:51:00.847Z,27.51
2018-08-09T12:53:27.767Z,27.47
2018-08-09T12:55:54.691Z,27.53
2018-08-09T12:58:21.650Z,27.55
2018-08-09T13:00:48.630Z,28.34
2018-08-09T13:03:15.565Z,28.15
2018-08-09T13:05:42.547Z,28.22
2018-08-09T13:08:09.497Z,28.21
2018-08-09T13:10:36.459Z,28.23
2018-08-09T13:13:03.463Z,28.27
2018-08-09T13:15:30.449Z,28.35
2018-08-09T13:17:57.335Z,28.72
2018-08-09T13:20:24.304Z,28.57
2018-08-09T13:22:52.417Z,29.05
2018-08-09T13:25:19.362Z,28.52
2018-08-09T13:27:46.577Z,28.47
2018-08-09T13:30:13.892Z,29.29
2018-08-09T13:32:41.851Z,29.10
2018-08-09T13:35:09.098Z,29.07
2018-08-09T13:37:36.075Z,28.60
2018-08-09T13:40:04.506Z,28.14
2018-08-09T13:42:31.510Z,27.46
2018-08-09T13:44:58.533Z,27.44
2018-08-09T13:47:25.518Z,27.27
2018-08-09T13:49:52.555Z,26.87
2018-08-09T13:52:19.579Z,26.78
2018-08-09T13:54:46.490Z,27.28
2018-08-09T13:57:13.462Z,27.50
2018-08-09T13:59:41.026Z,27.30
2018-08-09T14:02:07.998Z,27.60
2018-08-09T14:04:34.954Z,27.38
2018-08-09T14:07:01.894Z,27.38
2018-08-09T14:09:30.918Z,27.76
2018-08-09T14:11:57.846Z,27.57
2018-08-09T14:14:25.889Z,27.43
2018-08-09T14:16:52.827Z,28.28
2018-08-09T14:19:19.769Z,28.25
2018-08-09T14:21:46.756Z,28.16
2018-08-09T14:24:13.709Z,27.86
2018-08-09T14:26:40.679Z,28.21
2018-08-09T14:29:08.294Z,28.22
2018-08-09T14:31:35.241Z,27.63
2018-08-09T14:34:02.250Z,28.22
2018-08-09T14:36:29.170Z,28.82
2018-08-09T14:38:56.189Z,28.93
2018-08-09T14:41:23.125Z,29.77
2018-08-09T14:43:50.087Z,28.59
2018-08-09T14:46:17.091Z,28.72
2018-08-09T14:48:44.186Z,28.28
2018-08-09T14:51:11.038Z,28.07
2018-08-09T14:53:39.052Z,27.96
2018-08-09T14:56:05.978Z,27.20
2018-08-09T14:58:32.938Z,27.20
2018-08-09T15:01:00.494Z,27.78
2018-08-09T15:03:28.058Z,27.58
2018-08-09T15:05:55.046Z,27.32
2018-08-09T15:08:22.038Z,26.88
2018-08-09T15:10:49.042Z,26.98
2018-08-09T15:13:16.014Z,27.16
2018-08-09T15:15:42.967Z,26.66
2018-08-09T15:18:09.994Z,26.67
2018-08-09T15:20:36.977Z,26.66
2018-08-09T15:23:03.912Z,26.45
2018-08-09T15:25:30.951Z,26.42
2018-08-09T15:27:57.894Z,26.28
2018-08-09T15:30:25.871Z,26.49
2018-08-09T15:32:53.550Z,26.57
2018-08-09T15:35:20.486Z,26.30
2018-08-09T15:37:47.423Z,26.18
2018-08-09T15:40:15.488Z,26.09
2018-08-09T15:42:46.389Z,26.01
2018-08-09T15:45:14.132Z,26.07
2018-08-09T15:47:41.663Z,26.19
2018-08-09T15:50:12.438Z,26.19
2018-08-09T15:52:39.722Z,26.28
2018-08-09T15:55:07.158Z,26.42
2018-08-09T15:57:34.158Z,26.32
2018-08-09T16:00:01.167Z,26.24
2018-08-09T16:02:28.287Z,26.18
2018-08-09T16:04:55.521Z,26.25
2018-08-09T16:07:23.139Z,26.35
2018-08-09T16:09:50.259Z,26.33
2018-08-09T16:12:17.286Z,26.19
2018-08-09T16:14:44.188Z,26.52
2018-08-09T16:17:11.587Z,26.56
2018-08-09T16:19:39.145Z,26.87
2018-08-09T16:22:06.190Z,26.84
2018-08-09T16:24:33.147Z,26.76
2018-08-09T16:27:00.137Z,26.37
2018-08-09T16:29:27.029Z,26.76
2018-08-09T16:31:54.006Z,27.06
2018-08-09T16:34:22.618Z,27.09
2018-08-09T16:36:50.213Z,27.04
2018-08-09T16:39:17.180Z,26.83
2018-08-09T16:41:44.083Z,26.92
2018-08-09T16:44:11.625Z,26.86
2018-08-09T16:46:38.549Z,27.03
2018-08-09T16:49:05.665Z,27.01
2018-08-09T16:51:32.671Z,27.18
2018-08-09T16:53:59.594Z,26.84
2018-08-09T16:56:27.368Z,26.98
2018-08-09T16:58:54.317Z,26.81
2018-08-09T17:01:21.353Z,26.87
2018-08-09T17:03:48.322Z,26.48
2018-08-09T17:06:15.398Z,26.13
2018-08-09T17:08:42.375Z,25.93
2018-08-09T17:11:10.129Z,25.93
2018-08-09T17:13:37.162Z,25.83
2018-08-09T17:16:04.112Z,25.68
2018-08-09T17:18:31.035Z,25.33
2018-08-09T17:20:58.042Z,25.58
2018-08-09T17:23:24.938Z,25.63
2018-08-09T17:25:52.628Z,25.50
2018-08-09T17:28:19.578Z,25.54
2018-08-09T17:30:46.545Z,25.39
2018-08-09T17:33:15.530Z,25.32
2018-08-09T17:35:43.106Z,25.08
2018-08-09T17:38:11.679Z,24.94
2018-08-09T17:40:39.166Z,24.87
2018-08-09T17:43:06.142Z,25.01
2018-08-09T17:45:34.449Z,25.20
2018-08-09T17:48:01.780Z,25.33
2018-08-09T17:50:28.936Z,25.59
2018-08-09T17:52:58.722Z,25.49
2018-08-09T17:55:26.742Z,25.17
2018-08-09T17:57:53.694Z,25.07
2018-08-09T18:00:25.050Z,24.77
2018-08-09T18:02:53.584Z,24.71
2018-08-09T18:05:20.602Z,24.53
2018-08-09T18:07:47.634Z,24.51
2018-08-09T18:10:18.858Z,24.49
2018-08-09T18:12:46.390Z,24.39
2018-08-09T18:15:13.490Z,24.33
2018-08-09T18:17:40.490Z,24.26
2018-08-09T18:20:10.066Z,24.27
2018-08-09T18:22:36.992Z,24.23
2018-08-09T18:25:05.439Z,24.35
2018-08-09T18:27:32.337Z,24.20
2018-08-09T18:30:00.170Z,24.26
2018-08-09T18:32:27.697Z,24.25
2018-08-09T18:34:54.728Z,24.20
2018-08-09T18:37:21.701Z,24.18
2018-08-09T18:39:48.679Z,24.11
2018-08-09T18:42:15.607Z,24.12
2018-08-09T18:44:42.586Z,24.20
2018-08-09T18:47:09.642Z,24.28
2018-08-09T18:49:37.709Z,24.33
2018-08-09T18:52:05.211Z,24.22
2018-08-09T18:54:33.717Z,24.26
2018-08-09T18:57:00.629Z,24.13
2018-08-09T18:59:28.301Z,24.09
2018-08-09T19:01:55.199Z,23.99
2018-08-09T19:04:22.142Z,23.99
2018-08-09T19:06:49.734Z,23.91
2018-08-09T19:09:16.728Z,23.95
2018-08-09T19:11:43.630Z,23.89
2018-08-09T19:14:10.563Z,23.96
2018-08-09T19:16:37.521Z,23.84
2018-08-09T19:19:04.718Z,23.78
2018-08-09T19:21:31.756Z,23.78
2018-08-09T19:23:58.843Z,23.80
2018-08-09T19:26:26.979Z,23.69
2018-08-09T19:28:53.950Z,23.71
2018-08-09T19:31:20.973Z,23.64
2018-08-09T19:33:47.874Z,23.70
2018-08-09T19:36:14.813Z,23.69
2018-08-09T19:38:41.838Z,23.65
2018-08-09T19:41:08.972Z,23.71
2018-08-09T19:43:35.955Z,23.78
2018-08-09T19:46:02.892Z,23.66
2018-08-09T19:48:29.888Z,23.61
2018-08-09T19:50:56.782Z,23.53
2018-08-09T19:53:23.770Z,23.52
2018-08-09T19:55:50.746Z,23.52
2018-08-09T19:58:17.626Z,23.55
2018-08-09T20:00:44.502Z,23.42
2018-08-09T20:03:11.516Z,23.30
2018-08-09T20:05:39.306Z,23.22
2018-08-09T20:08:06.250Z,23.22
2018-08-09T20:10:33.189Z,23.26
2018-08-09T20:13:00.119Z,23.13
2018-08-09T20:15:27.080Z,23.15
2018-08-09T20:17:54.034Z,23.10
2018-08-09T20:20:22.530Z,23.03
2018-08-09T20:22:50.272Z,23.04
2018-08-09T20:25:17.149Z,23.04
2018-08-09T20:27:44.729Z,23.07
2018-08-09T20:30:13.218Z,23.04
2018-08-09T20:32:41.717Z,23.01
2018-08-09T20:35:11.939Z,23.07
2018-08-09T20:37:40.351Z,23.07
2018-08-09T20:40:08.358Z,23.16
2018-08-09T20:42:35.468Z,23.17
2018-08-09T20:45:02.379Z,23.24
2018-08-09T20:47:29.395Z,23.26
2018-08-09T20:49:56.348Z,22.96
2018-08-09T20:52:23.359Z,23.15
2018-08-09T20:54:51.290Z,23.00
2018-08-09T20:57:18.305Z,23.01
2018-08-09T20:59:45.203Z,22.83
2018-08-09T21:02:12.226Z,22.84
2018-08-09T21:04:39.118Z,22.83
2018-08-09T21:07:06.199Z,22.91
2018-08-09T21:09:34.158Z,22.85
2018-08-09T21:12:01.090Z,22.70
2018-08-09T21:14:27.983Z,22.57
2018-08-09T21:16:54.966Z,22.52
2018-08-09T21:19:21.921Z,22.70
2018-08-09T21:21:48.862Z,22.76
2018-08-09T21:24:15.782Z,22.80
2018-08-09T21:26:42.723Z,22.59
2018-08-09T21:29:09.626Z,22.57
2018-08-09T21:31:36.597Z,22.49
2018-08-09T21:34:03.541Z,22.51
2018-08-09T21:36:30.482Z,22.46
2018-08-09T21:38:57.494Z,22.47
2018-08-09T21:41:25.432Z,22.54
2018-08-09T21:43:53.335Z,22.47
2018-08-09T21:46:20.251Z,21.78
2018-08-09T21:48:47.126Z,21.39
2018-08-09T21:51:14.281Z,21.40
2018-08-09T21:53:41.266Z,21.30
2018-08-09T21:56:08.242Z,21.14
2018-08-09T21:58:35.767Z,21.16
2018-08-09T22:01:04.278Z,21.13
2018-08-09T22:03:34.397Z,21.11
2018-08-09T22:06:07.152Z,21.18
2018-08-09T22:08:39.796Z,21.26
2018-08-09T22:11:13.110Z,21.04
2018-08-09T22:13:45.671Z,21.15
2018-08-09T22:16:18.478Z,21.08
2018-08-09T22:18:53.120Z,21.27
2018-08-09T22:21:26.526Z,21.18
2018-08-09T22:23:53.543Z,21.05
2018-08-09T22:26:20.479Z,20.86
2018-08-09T22:28:47.402Z,20.91
2018-08-09T22:31:14.758Z,21.00
2018-08-09T22:33:41.745Z,20.75
2018-08-09T22:36:09.728Z,20.54
2018-08-09T22:38:36.654Z,20.53
2018-08-09T22:41:03.690Z,20.30
2018-08-09T22:43:30.574Z,20.22
2018-08-09T22:45:58.553Z,19.96
2018-08-09T22:48:25.634Z,20.08
2018-08-09T22:50:52.729Z,20.20
2018-08-09T22:53:19.618Z,20.16
2018-08-09T22:55:47.000Z,20.01
2018-08-09T22:58:14.271Z,19.91
2018-08-09T23:00:41.218Z,19.83
2018-08-09T23:03:09.813Z,19.82
2018-08-09T23:05:37.330Z,19.77
2018-08-09T23:08:05.074Z,19.74
2018-08-09T23:10:32.865Z,19.69
2018-08-09T23:12:59.818Z,19.67
2018-08-09T23:15:27.378Z,19.70
2018-08-09T23:17:54.382Z,19.71
2018-08-09T23:20:21.339Z,19.58
2018-08-09T23:22:50.306Z,19.67
2018-08-09T23:25:17.246Z,19.56
2018-08-09T23:27:45.954Z,19.53
2018-08-09T23:30:12.927Z,19.50
2018-08-09T23:32:40.922Z,19.53
2018-08-09T23:35:09.299Z,19.44
2018-08-09T23:37:36.866Z,19.44
2018-08-09T23:40:05.034Z,19.40
2018-08-09T23:42:33.741Z,19.33
2018-08-09T23:45:00.705Z,19.38
2018-08-09T23:47:27.666Z,19.34
2018-08-09T23:49:54.661Z,19.23
2018-08-09T23:52:21.600Z,19.16
2018-08-09T23:54:48.707Z,19.21
2018-08-09T23:57:15.583Z,19.18
2018-08-09T23:59:43.385Z,19.03
